Whitewood, South Dakota
Current Conditions -  °F | °C
As of 11:55 AM on Tuesday 27 Jan 2015 (Local Time) from KSPF Reporting Station
Clear Clear  
Wind Chill: 70°   Ceiling: Unl
Heat Index: 70°   Visibility: 10mi
Dew Point: 25°   Wind: 7mph
Humidity: 18%   Direction: 330°NNW
Pressure: 29.96"   Gusts: NA
Location:  44.46°N, 103.64°W
Report Text: KSPF 271855Z AUTO 33006KT 10SM CLR 21/M04 A2996 RMK AO2
Loading
Personal Weather Stations






























Interactive Weather Map New forecast layout! Learn more

10-Day Weather Forecast

Advertisements
Track Severe Weather on mobile